Time;durP1;ratioP1;P1;durP2;ratioP2;P2;SDS_P1;SDS_P2;PMS_P1;PMS_P2;Temp;Humidity;BMP_temperature;BMP_pressure;BME280_temperature;BME280_humidity;BME280_pressure;Samples;Min_cycle;Max_cycle;Signal;HPM_P1;HPM_P2
2024/01/17 00:00:59;;;;;;;24.50;13.53;;;;;;;;;;5039261;28;20506;-80
2024/01/17 00:03:25;;;;;;;21.57;12.10;;;;;;;;;;5030120;28;20438;-80
2024/01/17 00:05:51;;;;;;;24.17;13.10;;;;;;;;;;5031937;28;20421;-80
2024/01/17 00:08:17;;;;;;;20.97;12.20;;;;;;;;;;5013751;28;20449;-80
2024/01/17 00:10:43;;;;;;;19.30;11.40;;;;;;;;;;5025231;28;20433;-80
2024/01/17 00:13:09;;;;;;;21.40;12.67;;;;;;;;;;5027537;28;20583;-80
2024/01/17 00:15:35;;;;;;;24.43;13.27;;;;;;;;;;5008642;28;20831;-80
2024/01/17 00:18:02;;;;;;;22.13;13.00;;;;;;;;;;5027229;28;20448;-80
2024/01/17 00:20:28;;;;;;;20.97;11.83;;;;;;;;;;5030383;28;20965;-80
2024/01/17 00:22:54;;;;;;;24.53;13.13;;;;;;;;;;5034485;28;20190;-79
2024/01/17 00:25:20;;;;;;;20.97;12.13;;;;;;;;;;5033107;28;20452;-79
2024/01/17 00:27:49;;;;;;;17.73;11.30;;;;;;;;;;5011152;28;20181;-80
2024/01/17 00:30:15;;;;;;;22.13;11.63;;;;;;;;;;4982263;28;20175;-80
2024/01/17 00:32:41;;;;;;;17.00;10.27;;;;;;;;;;4967073;28;20199;-80
2024/01/17 00:35:08;;;;;;;21.00;12.00;;;;;;;;;;5015512;28;20311;-80
2024/01/17 00:37:34;;;;;;;21.23;12.37;;;;;;;;;;5026019;28;20509;-80
2024/01/17 00:40:00;;;;;;;18.33;11.50;;;;;;;;;;4989585;28;20261;-80
2024/01/17 00:42:27;;;;;;;20.67;11.47;;;;;;;;;;5024501;28;20276;-80
2024/01/17 00:44:54;;;;;;;21.87;12.80;;;;;;;;;;4986110;28;20935;-80
2024/01/17 00:47:20;;;;;;;20.63;11.90;;;;;;;;;;5040136;28;20978;-80
2024/01/17 00:49:46;;;;;;;20.90;12.57;;;;;;;;;;5026100;28;20441;-80
2024/01/17 00:52:12;;;;;;;23.57;12.60;;;;;;;;;;4985035;28;20204;-80
2024/01/17 00:54:39;;;;;;;21.40;11.57;;;;;;;;;;5024955;28;20237;-80
2024/01/17 00:57:05;;;;;;;23.33;12.70;;;;;;;;;;5027392;28;20184;-80
2024/01/17 00:59:31;;;;;;;22.03;12.80;;;;;;;;;;5002611;28;20182;-81
2024/01/17 01:01:57;;;;;;;19.40;11.87;;;;;;;;;;4991183;28;20246;-79
2024/01/17 01:04:24;;;;;;;18.60;11.23;;;;;;;;;;4988606;28;20229;-79
2024/01/17 01:06:50;;;;;;;24.30;11.97;;;;;;;;;;4959099;28;20252;-80
2024/01/17 01:09:16;;;;;;;26.13;12.60;;;;;;;;;;4971454;28;20438;-80
2024/01/17 01:11:43;;;;;;;21.13;11.53;;;;;;;;;;4985681;28;20189;-80
2024/01/17 01:14:09;;;;;;;24.03;12.57;;;;;;;;;;5012212;28;20289;-80
2024/01/17 01:16:35;;;;;;;21.83;13.07;;;;;;;;;;4991119;28;20186;-80
2024/01/17 01:19:01;;;;;;;21.20;12.43;;;;;;;;;;4974129;28;20224;-80
2024/01/17 01:21:27;;;;;;;20.40;11.80;;;;;;;;;;4958284;28;20918;-80
2024/01/17 01:23:54;;;;;;;23.97;14.57;;;;;;;;;;4974613;28;21391;-80
2024/01/17 01:26:20;;;;;;;26.33;13.90;;;;;;;;;;5029142;28;20479;-79
2024/01/17 01:28:46;;;;;;;23.87;14.43;;;;;;;;;;4973636;28;20432;-81
2024/01/17 01:31:12;;;;;;;21.73;13.77;;;;;;;;;;4975497;28;20182;-80
2024/01/17 01:33:39;;;;;;;23.83;13.93;;;;;;;;;;4973198;28;20851;-80
2024/01/17 01:36:06;;;;;;;25.43;13.57;;;;;;;;;;4973177;28;20190;-80
2024/01/17 01:38:32;;;;;;;32.57;17.40;;;;;;;;;;5026011;28;20181;-81
2024/01/17 01:40:58;;;;;;;33.27;18.27;;;;;;;;;;4972059;28;20473;-81
2024/01/17 01:43:25;;;;;;;34.90;17.40;;;;;;;;;;4975243;28;20439;-80
2024/01/17 01:46:10;;;;;;;34.10;18.50;;;;;;;;;;4957828;28;20615;-79
2024/01/17 01:48:36;;;;;;;28.20;16.73;;;;;;;;;;4973116;28;20213;-80
2024/01/17 01:51:02;;;;;;;24.60;15.57;;;;;;;;;;4977073;28;20518;-81
2024/01/17 01:53:29;;;;;;;27.83;15.47;;;;;;;;;;5034818;28;20479;-80
2024/01/17 01:55:55;;;;;;;25.70;14.53;;;;;;;;;;4955187;28;20430;-80
2024/01/17 01:58:26;;;;;;;21.97;13.10;;;;;;;;;;5016312;28;20440;-81
2024/01/17 02:00:53;;;;;;;22.33;14.20;;;;;;;;;;4960118;28;20690;-80
2024/01/17 02:03:20;;;;;;;24.40;14.70;;;;;;;;;;4978628;28;20457;-80
2024/01/17 02:05:46;;;;;;;40.80;19.37;;;;;;;;;;4974128;28;20189;-81
2024/01/17 02:08:12;;;;;;;27.00;15.40;;;;;;;;;;5009317;28;20449;-80
2024/01/17 02:10:40;;;;;;;27.23;15.53;;;;;;;;;;4968501;28;20217;-81
2024/01/17 02:13:06;;;;;;;27.30;15.10;;;;;;;;;;5002211;28;20185;-81
2024/01/17 02:15:33;;;;;;;24.03;13.93;;;;;;;;;;4962106;28;20530;-81
2024/01/17 02:17:59;;;;;;;23.63;13.63;;;;;;;;;;5009667;28;20209;-80
2024/01/17 02:20:26;;;;;;;24.57;14.43;;;;;;;;;;5031339;28;20182;-81
2024/01/17 02:22:53;;;;;;;22.40;13.43;;;;;;;;;;5026222;28;20218;-80
2024/01/17 02:25:19;;;;;;;25.00;14.70;;;;;;;;;;5021666;28;20217;-80
2024/01/17 02:27:45;;;;;;;27.77;15.23;;;;;;;;;;5020854;28;20179;-80
2024/01/17 02:30:14;;;;;;;24.63;14.53;;;;;;;;;;5009003;28;20454;-81
2024/01/17 02:32:40;;;;;;;20.17;12.83;;;;;;;;;;5030800;28;20433;-83
2024/01/17 02:35:06;;;;;;;22.97;13.70;;;;;;;;;;5040292;28;20207;-82
2024/01/17 02:37:33;;;;;;;18.07;12.27;;;;;;;;;;5027526;28;20262;-82
2024/01/17 02:39:59;;;;;;;21.87;12.17;;;;;;;;;;5027657;28;20199;-82
2024/01/17 02:42:25;;;;;;;20.60;11.93;;;;;;;;;;5007375;28;20203;-82
2024/01/17 02:44:51;;;;;;;21.17;12.33;;;;;;;;;;4995493;28;20220;-82
2024/01/17 02:47:17;;;;;;;20.27;11.53;;;;;;;;;;5000236;28;20214;-82
2024/01/17 02:49:43;;;;;;;18.93;10.63;;;;;;;;;;5023475;28;20195;-82
2024/01/17 02:52:09;;;;;;;18.33;11.17;;;;;;;;;;5017976;28;20588;-82
2024/01/17 02:54:36;;;;;;;18.50;12.10;;;;;;;;;;5009272;28;20517;-82
2024/01/17 02:57:02;;;;;;;19.87;11.90;;;;;;;;;;5008624;28;20270;-81
2024/01/17 02:59:28;;;;;;;20.57;12.53;;;;;;;;;;5032644;28;20197;-82
2024/01/17 03:01:54;;;;;;;23.63;13.50;;;;;;;;;;5014658;28;20632;-80
2024/01/17 03:04:21;;;;;;;23.33;13.30;;;;;;;;;;5008335;28;20263;-80
2024/01/17 03:06:50;;;;;;;24.60;14.50;;;;;;;;;;5028768;28;20276;-80
2024/01/17 03:09:16;;;;;;;24.03;13.93;;;;;;;;;;4980231;28;20262;-80
2024/01/17 03:11:42;;;;;;;22.93;13.80;;;;;;;;;;4987230;28;20518;-80
2024/01/17 03:14:08;;;;;;;20.80;13.70;;;;;;;;;;5032479;28;20206;-80
2024/01/17 03:16:36;;;;;;;24.97;14.60;;;;;;;;;;5018122;28;20967;-80
2024/01/17 03:19:02;;;;;;;23.80;14.00;;;;;;;;;;5005376;28;20198;-80
2024/01/17 03:21:28;;;;;;;22.70;13.87;;;;;;;;;;5036946;28;20977;-80
2024/01/17 03:23:55;;;;;;;21.90;13.20;;;;;;;;;;5026300;28;20375;-80
2024/01/17 03:26:21;;;;;;;24.60;13.80;;;;;;;;;;5030566;28;21851;-80
2024/01/17 03:28:48;;;;;;;23.67;13.57;;;;;;;;;;5024433;28;21241;-80
2024/01/17 03:31:14;;;;;;;20.70;12.73;;;;;;;;;;5027159;28;20187;-80
2024/01/17 03:33:40;;;;;;;23.73;13.63;;;;;;;;;;5037447;28;20202;-81
2024/01/17 03:36:07;;;;;;;21.77;12.70;;;;;;;;;;4981912;28;20565;-80
2024/01/17 03:38:33;;;;;;;20.40;12.37;;;;;;;;;;5034537;28;20186;-81
2024/01/17 03:41:01;;;;;;;22.03;12.67;;;;;;;;;;5030859;28;20550;-81
2024/01/17 03:43:27;;;;;;;23.97;14.17;;;;;;;;;;4980095;28;20241;-80
2024/01/17 03:45:57;;;;;;;24.30;13.33;;;;;;;;;;4975414;28;20431;-80
2024/01/17 03:48:23;;;;;;;22.50;12.00;;;;;;;;;;4977543;28;20259;-81
2024/01/17 03:50:49;;;;;;;19.27;12.10;;;;;;;;;;5030292;28;20190;-80
2024/01/17 03:53:16;;;;;;;23.70;13.13;;;;;;;;;;5034116;28;23681;-80
2024/01/17 03:55:42;;;;;;;23.27;14.60;;;;;;;;;;5039401;28;20191;-80
2024/01/17 03:58:09;;;;;;;22.57;12.97;;;;;;;;;;5041166;28;20198;-81
2024/01/17 04:00:35;;;;;;;23.60;13.23;;;;;;;;;;4976760;28;20182;-81
2024/01/17 04:03:01;;;;;;;22.97;12.97;;;;;;;;;;5002870;28;20540;-81
2024/01/17 04:05:27;;;;;;;23.73;13.27;;;;;;;;;;5035042;28;20229;-81
2024/01/17 04:07:53;;;;;;;23.37;12.97;;;;;;;;;;5029048;28;20190;-81
2024/01/17 04:10:19;;;;;;;18.77;12.10;;;;;;;;;;5010696;28;20229;-81
2024/01/17 04:12:45;;;;;;;21.73;12.80;;;;;;;;;;5027350;28;20425;-81
2024/01/17 04:15:12;;;;;;;21.97;11.97;;;;;;;;;;5012527;28;20559;-80
2024/01/17 04:17:39;;;;;;;23.97;13.50;;;;;;;;;;5026921;28;20179;-81
2024/01/17 04:20:05;;;;;;;26.73;14.97;;;;;;;;;;5025076;28;20198;-80
2024/01/17 04:22:32;;;;;;;22.53;12.87;;;;;;;;;;5019413;28;20245;-81
2024/01/17 04:24:58;;;;;;;20.67;12.87;;;;;;;;;;5027440;28;20286;-81
2024/01/17 04:27:24;;;;;;;21.13;12.80;;;;;;;;;;4892220;28;20213;-81
2024/01/17 04:29:50;;;;;;;23.23;12.67;;;;;;;;;;4890371;28;22450;-81
2024/01/17 04:32:17;;;;;;;22.20;12.83;;;;;;;;;;4948081;28;20174;-81
2024/01/17 04:34:43;;;;;;;19.20;12.77;;;;;;;;;;4962362;28;20583;-82
2024/01/17 04:37:09;;;;;;;22.20;12.43;;;;;;;;;;4902648;28;20179;-81
2024/01/17 04:39:35;;;;;;;23.17;12.97;;;;;;;;;;4882278;28;20402;-81
2024/01/17 04:42:01;;;;;;;17.73;11.80;;;;;;;;;;4879555;28;20309;-81
2024/01/17 04:44:30;;;;;;;21.67;11.70;;;;;;;;;;4914983;28;20203;-81
2024/01/17 04:46:57;;;;;;;19.27;11.73;;;;;;;;;;4902090;28;20217;-81
2024/01/17 04:49:26;;;;;;;19.40;12.30;;;;;;;;;;4977811;28;20417;-80
2024/01/17 04:51:53;;;;;;;16.27;10.90;;;;;;;;;;5032426;28;20557;-80
2024/01/17 04:54:20;;;;;;;17.17;11.57;;;;;;;;;;5034031;28;20646;-81
2024/01/17 04:56:46;;;;;;;16.53;10.90;;;;;;;;;;5028564;28;20194;-81
2024/01/17 04:59:12;;;;;;;16.63;10.90;;;;;;;;;;5033095;28;20268;-80
2024/01/17 05:01:38;;;;;;;23.37;13.27;;;;;;;;;;5031407;28;20229;-81
2024/01/17 05:04:05;;;;;;;27.27;13.60;;;;;;;;;;5029574;28;20243;-81
2024/01/17 05:06:32;;;;;;;20.47;12.93;;;;;;;;;;5037021;28;20628;-81
2024/01/17 05:08:59;;;;;;;22.90;12.80;;;;;;;;;;5029606;28;20064;-81
2024/01/17 05:11:27;;;;;;;21.70;12.23;;;;;;;;;;5029545;28;20178;-81
2024/01/17 05:13:53;;;;;;;23.53;13.60;;;;;;;;;;5037697;28;20210;-82
2024/01/17 05:16:19;;;;;;;18.97;11.77;;;;;;;;;;5019386;28;20185;-81
2024/01/17 05:18:46;;;;;;;18.53;10.93;;;;;;;;;;4936945;28;20285;-81
2024/01/17 05:21:12;;;;;;;20.53;12.17;;;;;;;;;;4972322;28;20214;-81
2024/01/17 05:23:38;;;;;;;20.57;11.77;;;;;;;;;;5001397;28;20678;-81
2024/01/17 05:26:05;;;;;;;19.90;12.20;;;;;;;;;;4905976;28;20179;-81
2024/01/17 05:28:31;;;;;;;20.50;12.83;;;;;;;;;;4911506;28;20183;-81
2024/01/17 05:30:57;;;;;;;18.13;11.43;;;;;;;;;;4926299;28;20588;-81
2024/01/17 05:33:24;;;;;;;21.13;12.40;;;;;;;;;;5010725;28;20187;-79
2024/01/17 05:35:51;;;;;;;18.53;12.27;;;;;;;;;;5027284;28;20199;-79
2024/01/17 05:38:17;;;;;;;20.43;12.57;;;;;;;;;;5013921;28;20253;-80
2024/01/17 05:40:43;;;;;;;20.80;11.83;;;;;;;;;;5010276;28;20285;-81
2024/01/17 05:43:10;;;;;;;20.57;12.63;;;;;;;;;;5028901;28;20179;-80
2024/01/17 05:45:36;;;;;;;22.63;13.53;;;;;;;;;;5010252;28;20554;-81
2024/01/17 05:48:02;;;;;;;19.97;13.33;;;;;;;;;;5026527;28;20270;-81
2024/01/17 05:50:29;;;;;;;17.90;12.20;;;;;;;;;;4943885;28;20218;-80
2024/01/17 05:52:55;;;;;;;17.07;11.10;;;;;;;;;;5009558;28;20198;-81
2024/01/17 05:55:21;;;;;;;19.90;12.63;;;;;;;;;;5029843;28;20213;-81
2024/01/17 05:57:47;;;;;;;17.60;11.53;;;;;;;;;;5010224;28;20677;-81
2024/01/17 06:00:14;;;;;;;18.80;12.27;;;;;;;;;;5027816;28;20240;-81
2024/01/17 06:02:41;;;;;;;18.90;12.00;;;;;;;;;;5027762;28;20690;-81
2024/01/17 06:05:08;;;;;;;19.17;12.03;;;;;;;;;;5032071;28;20356;-81
2024/01/17 06:07:35;;;;;;;19.23;11.30;;;;;;;;;;5036399;28;20218;-81
2024/01/17 06:10:01;;;;;;;21.77;13.27;;;;;;;;;;5016410;28;20182;-81
2024/01/17 06:12:27;;;;;;;19.30;12.30;;;;;;;;;;4996739;28;20220;-81
2024/01/17 06:14:53;;;;;;;21.17;12.23;;;;;;;;;;5031805;28;20233;-81
2024/01/17 06:17:19;;;;;;;21.97;13.93;;;;;;;;;;5003111;28;20183;-81
2024/01/17 06:19:45;;;;;;;22.27;14.10;;;;;;;;;;5011708;28;20210;-81
2024/01/17 06:22:12;;;;;;;29.53;16.23;;;;;;;;;;4990364;28;20210;-81
2024/01/17 06:24:38;;;;;;;29.53;17.37;;;;;;;;;;4973664;28;20670;-80
2024/01/17 06:27:04;;;;;;;29.50;16.77;;;;;;;;;;4979528;28;22277;-80
2024/01/17 06:29:30;;;;;;;25.90;16.20;;;;;;;;;;5004805;28;20183;-81
2024/01/17 06:31:57;;;;;;;25.87;15.50;;;;;;;;;;4961093;28;20199;-81
2024/01/17 06:34:23;;;;;;;26.60;16.00;;;;;;;;;;4996038;28;20548;-83
2024/01/17 06:36:49;;;;;;;26.70;16.13;;;;;;;;;;5039934;28;20285;-81
2024/01/17 06:39:17;;;;;;;29.30;17.50;;;;;;;;;;5037564;28;20211;-83
2024/01/17 06:41:43;;;;;;;32.00;19.17;;;;;;;;;;5016345;28;20769;-84
2024/01/17 06:44:10;;;;;;;28.63;17.40;;;;;;;;;;5024896;28;20233;-88
2024/01/17 06:46:58;;;;;;;25.97;16.60;;;;;;;;;;5020364;28;20290;-85
2024/01/17 06:49:25;;;;;;;31.75;18.33;;;;;;;;;;5021075;28;20422;-82
2024/01/17 06:51:51;;;;;;;29.20;18.02;;;;;;;;;;4957740;28;20448;-78
2024/01/17 06:54:18;;;;;;;26.93;16.03;;;;;;;;;;5024898;28;20391;-85
2024/01/17 06:56:44;;;;;;;26.80;15.93;;;;;;;;;;5016525;28;20195;-85
2024/01/17 06:59:10;;;;;;;24.30;16.07;;;;;;;;;;5017798;28;20538;-85
2024/01/17 07:01:38;;;;;;;26.73;16.73;;;;;;;;;;4996276;28;20218;-85
2024/01/17 07:04:05;;;;;;;30.47;17.90;;;;;;;;;;5000473;28;20229;-85
2024/01/17 07:06:58;;;;;;;29.50;18.07;;;;;;;;;;5023784;28;20193;-85
2024/01/17 07:09:25;;;;;;;26.20;16.53;;;;;;;;;;5023659;28;20205;-85
2024/01/17 07:11:51;;;;;;;30.83;18.23;;;;;;;;;;5038082;28;20264;-84
2024/01/17 07:14:17;;;;;;;29.50;18.67;;;;;;;;;;5032632;28;20229;-86
2024/01/17 07:16:43;;;;;;;28.50;17.37;;;;;;;;;;5019371;28;20539;-86
2024/01/17 07:19:09;;;;;;;32.20;19.37;;;;;;;;;;5026080;28;20669;-81
2024/01/17 07:21:39;;;;;;;34.87;19.90;;;;;;;;;;5043234;28;20248;-85
2024/01/17 07:24:06;;;;;;;30.97;18.00;;;;;;;;;;5043090;28;20199;-84
2024/01/17 07:26:32;;;;;;;32.60;19.47;;;;;;;;;;5036184;28;20205;-79
2024/01/17 07:28:58;;;;;;;26.57;17.47;;;;;;;;;;4981748;28;20190;-80
2024/01/17 07:31:24;;;;;;;29.37;17.57;;;;;;;;;;5035174;28;20186;-81
2024/01/17 07:33:52;;;;;;;28.17;16.47;;;;;;;;;;4901853;28;20705;-83
2024/01/17 07:36:18;;;;;;;25.83;16.43;;;;;;;;;;5036161;28;20195;-83
2024/01/17 07:38:46;;;;;;;26.73;16.47;;;;;;;;;;4966302;28;20182;-88
2024/01/17 07:41:12;;;;;;;26.27;15.33;;;;;;;;;;4911838;28;20202;-85
2024/01/17 07:43:38;;;;;;;25.53;16.87;;;;;;;;;;5022445;28;20299;-84
2024/01/17 07:46:05;;;;;;;22.47;15.13;;;;;;;;;;5038682;28;20194;-85
2024/01/17 07:48:32;;;;;;;25.63;16.53;;;;;;;;;;5029005;28;20179;-84
2024/01/17 07:50:58;;;;;;;24.70;14.87;;;;;;;;;;5019700;28;20190;-85
2024/01/17 07:53:26;;;;;;;26.13;16.27;;;;;;;;;;5019053;28;20572;-84
2024/01/17 07:55:53;;;;;;;30.23;16.30;;;;;;;;;;5033013;28;20651;-85
2024/01/17 07:58:20;;;;;;;30.90;18.53;;;;;;;;;;5003720;28;20248;-85
2024/01/17 08:00:47;;;;;;;28.50;16.80;;;;;;;;;;5034938;28;20512;-85
2024/01/17 08:03:13;;;;;;;29.93;17.53;;;;;;;;;;5017761;28;20182;-85
2024/01/17 08:05:39;;;;;;;25.67;16.43;;;;;;;;;;5004049;28;20591;-84
2024/01/17 08:08:06;;;;;;;30.80;17.57;;;;;;;;;;5028186;28;20625;-83
2024/01/17 08:10:32;;;;;;;33.93;19.13;;;;;;;;;;5042229;28;20194;-82
2024/01/17 08:12:58;;;;;;;31.60;18.90;;;;;;;;;;5030449;28;20242;-82
2024/01/17 08:15:24;;;;;;;27.47;17.60;;;;;;;;;;5031693;28;20210;-82
2024/01/17 08:17:51;;;;;;;26.60;16.40;;;;;;;;;;5028093;28;20208;-82
2024/01/17 08:20:17;;;;;;;26.93;16.23;;;;;;;;;;5029535;28;20191;-82
2024/01/17 08:22:43;;;;;;;29.30;16.20;;;;;;;;;;5028722;28;20666;-82
2024/01/17 08:25:10;;;;;;;29.97;16.97;;;;;;;;;;5029575;28;20293;-83
2024/01/17 08:27:36;;;;;;;28.60;17.03;;;;;;;;;;5032751;28;20661;-82
2024/01/17 08:30:04;;;;;;;26.73;17.47;;;;;;;;;;5030066;28;20178;-83
2024/01/17 08:32:30;;;;;;;32.67;17.47;;;;;;;;;;5014552;28;20200;-83
2024/01/17 08:34:57;;;;;;;31.33;17.40;;;;;;;;;;5017657;28;20309;-83
2024/01/17 08:37:23;;;;;;;26.73;17.27;;;;;;;;;;5030189;28;20293;-83
2024/01/17 08:39:49;;;;;;;32.63;19.27;;;;;;;;;;5009782;28;20194;-84
2024/01/17 08:42:15;;;;;;;28.93;18.10;;;;;;;;;;5011926;28;20221;-84
2024/01/17 08:44:44;;;;;;;28.73;17.77;;;;;;;;;;5015467;28;20218;-83
2024/01/17 08:47:10;;;;;;;29.00;18.13;;;;;;;;;;5015685;28;20221;-84
2024/01/17 08:49:39;;;;;;;32.33;18.30;;;;;;;;;;5017280;28;20337;-84
2024/01/17 08:52:06;;;;;;;29.27;18.20;;;;;;;;;;4999309;28;20198;-83
2024/01/17 08:54:32;;;;;;;28.30;18.27;;;;;;;;;;5012580;28;20214;-86
2024/01/17 08:56:58;;;;;;;30.93;18.93;;;;;;;;;;5013012;28;20199;-83
2024/01/17 08:59:24;;;;;;;31.13;18.37;;;;;;;;;;5019314;28;20186;-85
2024/01/17 09:01:52;;;;;;;32.17;19.27;;;;;;;;;;4993717;28;20241;-83
2024/01/17 09:04:19;;;;;;;29.73;19.50;;;;;;;;;;5016599;28;20206;-82
2024/01/17 09:06:46;;;;;;;30.23;19.63;;;;;;;;;;5027270;28;20699;-81
2024/01/17 09:09:12;;;;;;;28.27;17.40;;;;;;;;;;5044321;28;20182;-84
2024/01/17 09:11:39;;;;;;;25.53;17.47;;;;;;;;;;5010535;28;20187;-83
2024/01/17 09:14:06;;;;;;;28.53;17.07;;;;;;;;;;5029269;28;20256;-84
2024/01/17 09:16:33;;;;;;;25.77;17.37;;;;;;;;;;5013390;28;20226;-85
2024/01/17 09:18:59;;;;;;;29.83;19.13;;;;;;;;;;5009874;28;20548;-83
2024/01/17 09:21:26;;;;;;;29.63;18.83;;;;;;;;;;5025680;28;20631;-83
2024/01/17 09:23:53;;;;;;;29.40;18.07;;;;;;;;;;5022281;28;20206;-83
2024/01/17 09:26:19;;;;;;;33.13;20.43;;;;;;;;;;5006146;28;20213;-83
2024/01/17 09:28:47;;;;;;;32.63;19.80;;;;;;;;;;5007095;28;20197;-88
2024/01/17 09:31:14;;;;;;;34.30;20.20;;;;;;;;;;5010962;28;20285;-83
2024/01/17 09:33:40;;;;;;;34.27;19.63;;;;;;;;;;4990183;28;20206;-84
2024/01/17 09:36:06;;;;;;;30.50;20.17;;;;;;;;;;5027785;28;20652;-84
2024/01/17 09:38:32;;;;;;;35.93;21.57;;;;;;;;;;5009879;28;20182;-84
2024/01/17 09:40:59;;;;;;;31.47;19.37;;;;;;;;;;5015467;28;20179;-85
2024/01/17 09:43:25;;;;;;;30.00;19.50;;;;;;;;;;5037384;28;20205;-88
2024/01/17 09:45:54;;;;;;;32.07;19.63;;;;;;;;;;5037143;28;20190;-87
2024/01/17 09:48:25;;;;;;;31.30;20.03;;;;;;;;;;5037476;28;20200;-88
2024/01/17 09:50:51;;;;;;;35.13;21.00;;;;;;;;;;5031226;28;20212;-87
2024/01/17 09:53:20;;;;;;;30.13;19.40;;;;;;;;;;4994128;28;20178;-84
2024/01/17 09:55:48;;;;;;;29.67;18.93;;;;;;;;;;5010568;28;20208;-84
2024/01/17 09:58:14;;;;;;;29.10;18.73;;;;;;;;;;5012491;28;21168;-84
2024/01/17 10:00:41;;;;;;;32.70;20.23;;;;;;;;;;5027143;28;20273;-84
2024/01/17 10:03:09;;;;;;;37.53;22.10;;;;;;;;;;5007127;28;20213;-85
2024/01/17 10:05:36;;;;;;;32.17;20.00;;;;;;;;;;5012001;28;20198;-84
2024/01/17 10:08:03;;;;;;;31.17;20.47;;;;;;;;;;5013561;28;20183;-84
2024/01/17 10:10:30;;;;;;;31.83;20.37;;;;;;;;;;5012867;28;20224;-84
2024/01/17 10:12:56;;;;;;;32.07;19.40;;;;;;;;;;5029902;28;20186;-85
2024/01/17 10:15:23;;;;;;;30.17;19.83;;;;;;;;;;5013371;28;20745;-84
2024/01/17 10:17:49;;;;;;;34.93;19.90;;;;;;;;;;5027482;28;20672;-85
2024/01/17 10:20:16;;;;;;;31.73;21.10;;;;;;;;;;5007841;28;20198;-86
2024/01/17 10:22:45;;;;;;;31.97;20.37;;;;;;;;;;5007827;28;20221;-85
2024/01/17 10:25:12;;;;;;;30.43;20.30;;;;;;;;;;5024275;28;20206;-84
2024/01/17 10:27:38;;;;;;;33.53;21.80;;;;;;;;;;5029896;28;20266;-85
2024/01/17 10:30:04;;;;;;;30.70;21.17;;;;;;;;;;5005954;28;20194;-84
2024/01/17 10:32:31;;;;;;;31.63;21.77;;;;;;;;;;5024681;28;20578;-86
2024/01/17 10:34:58;;;;;;;33.67;22.63;;;;;;;;;;4997100;28;20202;-85
2024/01/17 10:37:25;;;;;;;32.97;20.57;;;;;;;;;;5012070;28;20217;-84
2024/01/17 10:40:11;;;;;;;33.57;21.47;;;;;;;;;;5024365;28;21415;-84
2024/01/17 10:42:40;;;;;;;32.83;21.43;;;;;;;;;;5012126;28;20317;-84
2024/01/17 10:45:08;;;;;;;31.87;21.57;;;;;;;;;;5032960;28;20251;-84
2024/01/17 10:47:34;;;;;;;35.03;21.50;;;;;;;;;;5016752;28;20277;-84
2024/01/17 10:50:01;;;;;;;32.37;20.73;;;;;;;;;;5029886;28;20183;-84
2024/01/17 10:52:29;;;;;;;30.07;19.87;;;;;;;;;;5032664;28;20194;-84
2024/01/17 10:55:04;;;;;;;35.27;22.87;;;;;;;;;;5029261;28;20298;-84
2024/01/17 10:57:33;;;;;;;38.30;23.23;;;;;;;;;;5030332;28;20268;-84
2024/01/17 11:00:03;;;;;;;42.97;23.37;;;;;;;;;;5012094;28;20222;-84
2024/01/17 11:02:32;;;;;;;33.13;22.10;;;;;;;;;;5026494;28;20206;-85
2024/01/17 11:05:11;;;;;;;35.27;22.37;;;;;;;;;;5013051;28;20225;-84
2024/01/17 11:07:38;;;;;;;36.70;22.97;;;;;;;;;;5008520;28;20655;-82
2024/01/17 11:10:05;;;;;;;29.83;20.57;;;;;;;;;;5032486;28;20259;-79
2024/01/17 11:12:32;;;;;;;31.60;21.07;;;;;;;;;;5031300;28;20642;-84
2024/01/17 11:15:03;;;;;;;30.00;20.37;;;;;;;;;;4993641;28;20360;-84
2024/01/17 11:17:32;;;;;;;36.20;22.13;;;;;;;;;;5005221;28;20191;-84
2024/01/17 11:19:59;;;;;;;33.73;23.20;;;;;;;;;;5021108;28;20528;-84
2024/01/17 11:22:25;;;;;;;33.20;20.90;;;;;;;;;;5019866;28;20210;-83
2024/01/17 11:24:56;;;;;;;40.07;26.47;;;;;;;;;;5012524;28;20217;-80
2024/01/17 11:27:36;;;;;;;40.47;26.93;;;;;;;;;;5006895;28;20557;-79
2024/01/17 11:30:08;;;;;;;33.97;24.53;;;;;;;;;;5020737;28;20190;-79
2024/01/17 11:32:45;;;;;;;34.47;23.60;;;;;;;;;;5028741;28;20225;-79
2024/01/17 11:35:31;;;;;;;34.17;22.37;;;;;;;;;;5033584;28;20252;-78
2024/01/17 11:37:58;;;;;;;34.07;22.77;;;;;;;;;;5024553;28;21019;-77
2024/01/17 11:40:24;;;;;;;35.77;22.00;;;;;;;;;;5027437;28;20221;-76
2024/01/17 11:42:50;;;;;;;37.23;23.53;;;;;;;;;;5028185;28;20666;-75
2024/01/17 11:45:17;;;;;;;37.17;23.30;;;;;;;;;;5035545;28;20206;-74
2024/01/17 11:47:52;;;;;;;35.60;23.90;;;;;;;;;;5032327;28;20183;-75
2024/01/17 11:50:21;;;;;;;32.90;23.43;;;;;;;;;;5022439;28;20190;-75
2024/01/17 11:52:47;;;;;;;30.90;21.83;;;;;;;;;;5024732;28;20324;-75
2024/01/17 11:55:14;;;;;;;37.03;25.50;;;;;;;;;;5022992;28;20206;-75
2024/01/17 11:57:41;;;;;;;42.23;25.83;;;;;;;;;;5028678;28;20185;-75
2024/01/17 12:00:07;;;;;;;38.60;24.53;;;;;;;;;;5033212;28;20285;-75
2024/01/17 12:02:37;;;;;;;38.97;25.63;;;;;;;;;;5031295;28;20602;-75
2024/01/17 12:05:05;;;;;;;38.47;25.93;;;;;;;;;;5019104;28;20249;-76
2024/01/17 12:07:31;;;;;;;38.73;25.67;;;;;;;;;;5028994;28;20178;-75
2024/01/17 12:09:58;;;;;;;40.03;26.57;;;;;;;;;;5013770;28;20631;-76
2024/01/17 12:12:24;;;;;;;36.97;26.40;;;;;;;;;;4999445;28;20261;-76
2024/01/17 12:14:50;;;;;;;37.50;25.60;;;;;;;;;;5016747;28;20260;-76
2024/01/17 12:17:16;;;;;;;36.33;25.43;;;;;;;;;;5021540;28;20195;-76
2024/01/17 12:19:43;;;;;;;37.57;25.73;;;;;;;;;;5000823;28;20187;-76
2024/01/17 12:22:10;;;;;;;33.97;23.17;;;;;;;;;;4994655;28;20202;-76
2024/01/17 12:24:37;;;;;;;35.57;24.77;;;;;;;;;;5017538;28;20233;-75
2024/01/17 12:27:06;;;;;;;34.70;24.10;;;;;;;;;;5020484;28;20193;-76
2024/01/17 12:29:33;;;;;;;36.50;25.20;;;;;;;;;;5014381;28;20187;-77
2024/01/17 12:31:59;;;;;;;30.90;21.80;;;;;;;;;;5027009;28;20186;-78
2024/01/17 12:34:25;;;;;;;31.53;22.73;;;;;;;;;;5036804;28;20579;-78
2024/01/17 12:36:51;;;;;;;35.27;24.23;;;;;;;;;;5034753;28;20194;-77
2024/01/17 12:39:18;;;;;;;34.00;24.00;;;;;;;;;;5023349;28;20277;-78
2024/01/17 12:41:44;;;;;;;31.17;22.87;;;;;;;;;;5032388;28;20213;-78
2024/01/17 12:44:10;;;;;;;33.07;23.00;;;;;;;;;;5042905;28;20195;-78
2024/01/17 12:46:37;;;;;;;30.47;22.77;;;;;;;;;;5034451;28;20179;-79
2024/01/17 12:49:04;;;;;;;30.00;22.17;;;;;;;;;;4989317;28;20210;-80
2024/01/17 12:51:31;;;;;;;33.37;23.80;;;;;;;;;;5020869;28;20525;-77
2024/01/17 12:53:58;;;;;;;31.67;23.30;;;;;;;;;;5027805;28;20222;-76
2024/01/17 12:56:24;;;;;;;33.53;24.07;;;;;;;;;;5024952;28;20274;-77
2024/01/17 12:58:50;;;;;;;28.90;21.77;;;;;;;;;;5035227;28;20192;-77
2024/01/17 13:01:16;;;;;;;32.50;23.50;;;;;;;;;;5020929;28;20242;-76
2024/01/17 13:03:45;;;;;;;35.80;25.00;;;;;;;;;;5027876;28;20206;-77
2024/01/17 13:06:13;;;;;;;33.70;24.03;;;;;;;;;;4965373;28;21517;-77
2024/01/17 13:08:39;;;;;;;34.27;23.13;;;;;;;;;;5024930;28;20206;-77
2024/01/17 13:11:15;;;;;;;35.23;24.30;;;;;;;;;;4963374;28;20213;-77
2024/01/17 13:13:41;;;;;;;29.33;21.90;;;;;;;;;;4956250;28;20628;-77
2024/01/17 13:16:07;;;;;;;35.53;24.93;;;;;;;;;;4969258;28;20561;-77
2024/01/17 13:18:33;;;;;;;33.00;23.40;;;;;;;;;;4974649;28;20209;-77
2024/01/17 13:21:11;;;;;;;40.93;28.10;;;;;;;;;;4969006;28;20193;-78
2024/01/17 13:23:39;;;;;;;60.53;32.80;;;;;;;;;;5025369;28;20209;-77
2024/01/17 13:26:05;;;;;;;55.43;32.37;;;;;;;;;;4961749;28;20195;-77
2024/01/17 13:28:31;;;;;;;33.87;23.90;;;;;;;;;;4978457;28;20190;-78
2024/01/17 13:30:57;;;;;;;32.47;22.83;;;;;;;;;;4961692;28;20301;-77
2024/01/17 13:33:24;;;;;;;38.10;25.37;;;;;;;;;;4976031;28;20577;-77
2024/01/17 13:35:53;;;;;;;33.87;22.47;;;;;;;;;;5016918;28;20248;-78
2024/01/17 13:38:25;;;;;;;31.27;21.07;;;;;;;;;;5009202;28;20190;-77
2024/01/17 13:40:52;;;;;;;28.93;21.37;;;;;;;;;;4946548;28;20182;-77
2024/01/17 13:43:18;;;;;;;33.57;24.20;;;;;;;;;;4917865;28;20214;-77
2024/01/17 13:45:44;;;;;;;29.60;21.97;;;;;;;;;;4922323;28;20258;-77
2024/01/17 13:48:11;;;;;;;59.23;31.80;;;;;;;;;;4983394;28;20817;-77
2024/01/17 13:50:37;;;;;;;36.77;26.00;;;;;;;;;;5024481;28;20187;-75
2024/01/17 13:53:28;;;;;;;43.60;26.93;;;;;;;;;;4958590;28;20285;-75
2024/01/17 13:55:54;;;;;;;33.73;24.97;;;;;;;;;;5035642;28;20186;-75
2024/01/17 13:58:22;;;;;;;34.00;23.17;;;;;;;;;;4944782;28;20643;-75
2024/01/17 14:00:52;;;;;;;30.90;23.03;;;;;;;;;;5024995;28;20233;-75
2024/01/17 14:03:19;;;;;;;28.30;21.17;;;;;;;;;;4958361;28;20936;-74
2024/01/17 14:05:45;;;;;;;35.43;23.77;;;;;;;;;;5021309;28;20190;-77
2024/01/17 14:08:12;;;;;;;29.97;22.10;;;;;;;;;;4958285;28;20666;-75
2024/01/17 14:10:39;;;;;;;26.83;20.43;;;;;;;;;;4974186;28;20715;-75
2024/01/17 14:13:06;;;;;;;55.20;30.83;;;;;;;;;;4961482;28;20651;-75
2024/01/17 14:15:32;;;;;;;47.17;28.87;;;;;;;;;;4953191;28;20214;-75